Santiago, Dominican Republic

9:54 AM AST on December 07, 2016 (GMT -0400)
PUCMM Santiago | | Change Station

Elev 653 ft 19.44 °N, 70.68 °W | Updated 11 seconds ago

Mostly Cloudy
Mostly Cloudy
78.6 °F
Feels Like 79 °F
N
2.5
Wind Variable Wind from SW
Gusts 4.9 mph

Today
High -- | Low -- °F
--% Chance of Precip.
Yesterday
High -- | Low -- °F
Precip. -- in
Pressure 30.04 in
Visibility 1.2 miles
Clouds Mostly Cloudy 1400 ft
Heat Index 79 °F
Dew Point 56 °F
Humidity 46%
Rainfall 0.00 in
Snow Depth Not available.
7:04 AM 6:04 PM
First Quarter, 52% visible
METAR MDST 071300Z 14006KT 2000 BR BKN014 23/23 Q1017 BR/ALL QDS
Pressure 30.04 in
Visibility 1.2 miles
Clouds Mostly Cloudy 1400 ft
Heat Index 79 °F
Dew Point 56 °F
Humidity 46%
Rainfall 0.00 in
Snow Depth Not available.
7:04 AM 6:04 PM
First Quarter, 52% visible
METAR MDST 071300Z 14006KT 2000 BR BKN014 23/23 Q1017 BR/ALL QDS

10-Day Weather Forecast

No radar image for this location.
×

Almanac

Astronomy

Dec. 07, 2016 Rise Set
Actual Time
Civil Twilight
Nautical Twilight
Astronomical Twilight
Moon
Length of Visible Light
Length of Day
Tomorrow will be .
, % of the Moon is Illuminated

Today's Extremes

Country Highs Country Lows

Community

WunderPhotos

Upload Photos

1,956,114 photos uploaded!

WunderBlog® & News

Nearby

Air Quality

  Air Quality AQ Index Pollutant
Not available.

Snow Depth

Station Depth Elevation

Earthquake Activity

City Distance Mag. Time & Date
Minimum magnitude displayed is 2.5.

Coastal Water Temperatures

Place Temperature

Stations

Nearby Weather Stations

Station Location Temp. Windchill Dew Point Humidity Wind Precip. Elev Updated Type